sensor_id;sensor_type;location;lat;lon;timestamp;pressure;altitude;pressure_sealevel;temperature;humidity
61109;BME280;46995;55.740;37.402;2023-05-20T00:07:38;100490.94;;;11.66;54.46
61109;BME280;46995;55.740;37.402;2023-05-20T00:10:04;100479.63;;;11.64;54.28
61109;BME280;46995;55.740;37.402;2023-05-20T00:12:30;100459.00;;;11.45;54.33
61109;BME280;46995;55.740;37.402;2023-05-20T00:14:56;100470.09;;;11.51;53.98
61109;BME280;46995;55.740;37.402;2023-05-20T00:17:22;100459.16;;;11.31;54.39
61109;BME280;46995;55.740;37.402;2023-05-20T00:19:49;100500.75;;;11.53;54.19
61109;BME280;46995;55.740;37.402;2023-05-20T00:22:15;100468.91;;;11.31;54.20
61109;BME280;46995;55.740;37.402;2023-05-20T00:25:04;100505.81;;;11.56;54.07
61109;BME280;46995;55.740;37.402;2023-05-20T00:27:45;100442.69;;;11.28;54.04
61109;BME280;46995;55.740;37.402;2023-05-20T00:30:11;100484.53;;;11.58;53.81
61109;BME280;46995;55.740;37.402;2023-05-20T00:32:37;100482.00;;;11.56;53.96
61109;BME280;46995;55.740;37.402;2023-05-20T00:35:03;100481.13;;;11.44;53.91
61109;BME280;46995;55.740;37.402;2023-05-20T00:37:33;100472.88;;;11.36;54.08
61109;BME280;46995;55.740;37.402;2023-05-20T00:39:59;100479.78;;;11.39;54.22
61109;BME280;46995;55.740;37.402;2023-05-20T00:42:27;100494.00;;;11.49;54.37
61109;BME280;46995;55.740;37.402;2023-05-20T00:44:54;100447.53;;;11.34;54.27
61109;BME280;46995;55.740;37.402;2023-05-20T00:47:25;100501.53;;;11.66;54.37
61109;BME280;46995;55.740;37.402;2023-05-20T00:49:53;100477.66;;;11.55;54.15
61109;BME280;46995;55.740;37.402;2023-05-20T00:52:19;100486.22;;;11.59;54.11
61109;BME280;46995;55.740;37.402;2023-05-20T00:54:45;100488.00;;;11.58;54.35
61109;BME280;46995;55.740;37.402;2023-05-20T00:57:12;100495.00;;;11.59;54.66
61109;BME280;46995;55.740;37.402;2023-05-20T00:59:38;100484.47;;;11.46;54.95
61109;BME280;46995;55.740;37.402;2023-05-20T01:02:04;100467.59;;;11.36;55.15
61109;BME280;46995;55.740;37.402;2023-05-20T01:04:33;100491.47;;;11.47;55.51
61109;BME280;46995;55.740;37.402;2023-05-20T01:07:01;100453.50;;;11.25;55.88
61109;BME280;46995;55.740;37.402;2023-05-20T01:09:29;100499.28;;;11.49;55.84
61109;BME280;46995;55.740;37.402;2023-05-20T01:12:07;100472.53;;;11.30;56.40
61109;BME280;46995;55.740;37.402;2023-05-20T01:14:58;100501.53;;;11.42;56.56
61109;BME280;46995;55.740;37.402;2023-05-20T01:17:26;100467.69;;;11.24;56.59
61109;BME280;46995;55.740;37.402;2023-05-20T01:19:56;100472.53;;;11.30;56.59
61109;BME280;46995;55.740;37.402;2023-05-20T01:22:55;100475.88;;;11.32;56.63
61109;BME280;46995;55.740;37.402;2023-05-20T01:25:21;100503.84;;;11.47;56.57
61109;BME280;46995;55.740;37.402;2023-05-20T01:27:49;100499.97;;;11.40;56.77
61109;BME280;46995;55.740;37.402;2023-05-20T01:30:17;100497.03;;;11.32;57.21
61109;BME280;46995;55.740;37.402;2023-05-20T01:35:18;100502.13;;;11.35;57.68
61109;BME280;46995;55.740;37.402;2023-05-20T01:37:46;100488.59;;;11.27;57.02
61109;BME280;46995;55.740;37.402;2023-05-20T01:40:15;100515.72;;;11.41;57.39
61109;BME280;46995;55.740;37.402;2023-05-20T01:42:43;100504.03;;;11.33;57.42
61109;BME280;46995;55.740;37.402;2023-05-20T01:45:10;100510.75;;;11.37;57.42
61109;BME280;46995;55.740;37.402;2023-05-20T01:47:36;100493.72;;;11.17;57.32
61109;BME280;46995;55.740;37.402;2023-05-20T01:50:04;100521.19;;;11.27;57.87
61109;BME280;46995;55.740;37.402;2023-05-20T01:52:35;100511.47;;;11.15;58.11
61109;BME280;46995;55.740;37.402;2023-05-20T01:55:05;100514.03;;;11.17;57.96
61109;BME280;46995;55.740;37.402;2023-05-20T01:57:31;100495.25;;;11.09;58.19
61109;BME280;46995;55.740;37.402;2023-05-20T01:59:57;100492.81;;;11.05;58.39
61109;BME280;46995;55.740;37.402;2023-05-20T02:02:23;100513.06;;;11.18;58.37
61109;BME280;46995;55.740;37.402;2023-05-20T02:04:50;100516.91;;;11.14;58.89
61109;BME280;46995;55.740;37.402;2023-05-20T02:07:16;100517.19;;;11.22;58.77
61109;BME280;46995;55.740;37.402;2023-05-20T02:09:46;100516.75;;;11.28;58.63
61109;BME280;46995;55.740;37.402;2023-05-20T02:12:12;100513.16;;;11.29;58.41
61109;BME280;46995;55.740;37.402;2023-05-20T02:14:47;100492.25;;;11.13;59.02
61109;BME280;46995;55.740;37.402;2023-05-20T02:17:16;100523.47;;;11.32;58.70
61109;BME280;46995;55.740;37.402;2023-05-20T02:19:43;100496.25;;;11.19;58.90
61109;BME280;46995;55.740;37.402;2023-05-20T02:22:08;100499.63;;;11.21;58.70
61109;BME280;46995;55.740;37.402;2023-05-20T02:24:35;100493.31;;;11.11;58.96
61109;BME280;46995;55.740;37.402;2023-05-20T02:27:01;100462.31;;;10.89;59.10
61109;BME280;46995;55.740;37.402;2023-05-20T02:29:29;100499.97;;;11.16;59.19
61109;BME280;46995;55.740;37.402;2023-05-20T02:31:56;100501.31;;;11.22;58.92
61109;BME280;46995;55.740;37.402;2023-05-20T02:34:22;100518.94;;;11.34;58.62
61109;BME280;46995;55.740;37.402;2023-05-20T02:36:50;100516.06;;;11.37;59.22
61109;BME280;46995;55.740;37.402;2023-05-20T02:39:17;100486.34;;;11.10;59.10
61109;BME280;46995;55.740;37.402;2023-05-20T02:41:43;100477.41;;;10.99;59.28
61109;BME280;46995;55.740;37.402;2023-05-20T02:44:10;100512.06;;;11.31;59.03
61109;BME280;46995;55.740;37.402;2023-05-20T02:46:36;100448.16;;;10.90;59.44
61109;BME280;46995;55.740;37.402;2023-05-20T02:49:02;100430.44;;;10.79;59.30
61109;BME280;46995;55.740;37.402;2023-05-20T02:51:28;100483.66;;;10.98;59.78
61109;BME280;46995;55.740;37.402;2023-05-20T02:53:56;100455.16;;;10.78;60.17
61109;BME280;46995;55.740;37.402;2023-05-20T02:56:22;100426.69;;;10.58;60.55
61109;BME280;46995;55.740;37.402;2023-05-20T02:58:49;100501.59;;;11.06;60.44
61109;BME280;46995;55.740;37.402;2023-05-20T03:01:15;100485.56;;;10.96;60.45
61109;BME280;46995;55.740;37.402;2023-05-20T03:04:20;100518.88;;;11.23;60.72
61109;BME280;46995;55.740;37.402;2023-05-20T03:06:48;100461.25;;;10.91;60.29
61109;BME280;46995;55.740;37.402;2023-05-20T03:09:21;100473.69;;;11.02;60.47
61109;BME280;46995;55.740;37.402;2023-05-20T03:11:50;100514.63;;;11.20;60.66
61109;BME280;46995;55.740;37.402;2023-05-20T03:14:16;100513.34;;;11.26;60.86
61109;BME280;46995;55.740;37.402;2023-05-20T03:16:42;100480.88;;;11.00;60.93
61109;BME280;46995;55.740;37.402;2023-05-20T03:19:09;100511.28;;;11.18;61.41
61109;BME280;46995;55.740;37.402;2023-05-20T03:21:35;100502.50;;;11.18;61.35
61109;BME280;46995;55.740;37.402;2023-05-20T03:24:00;100510.59;;;11.27;61.21
61109;BME280;46995;55.740;37.402;2023-05-20T03:26:26;100503.63;;;11.26;61.10
61109;BME280;46995;55.740;37.402;2023-05-20T03:28:52;100516.69;;;11.40;61.23
61109;BME280;46995;55.740;37.402;2023-05-20T03:31:18;100519.00;;;11.45;61.19
61109;BME280;46995;55.740;37.402;2023-05-20T03:33:44;100495.53;;;11.40;60.89
61109;BME280;46995;55.740;37.402;2023-05-20T03:36:10;100503.72;;;11.48;61.10
61109;BME280;46995;55.740;37.402;2023-05-20T03:38:39;100462.09;;;11.16;61.31
61109;BME280;46995;55.740;37.402;2023-05-20T03:41:05;100476.81;;;11.20;61.66
61109;BME280;46995;55.740;37.402;2023-05-20T03:43:32;100513.00;;;11.54;61.59
61109;BME280;46995;55.740;37.402;2023-05-20T03:45:58;100510.91;;;11.46;61.39
61109;BME280;46995;55.740;37.402;2023-05-20T03:48:25;100503.13;;;11.45;61.38
61109;BME280;46995;55.740;37.402;2023-05-20T03:50:54;100461.72;;;11.33;61.35
61109;BME280;46995;55.740;37.402;2023-05-20T03:53:20;100487.31;;;11.56;61.00
61109;BME280;46995;55.740;37.402;2023-05-20T03:55:46;100501.53;;;11.66;61.10
61109;BME280;46995;55.740;37.402;2023-05-20T03:58:13;100502.75;;;11.73;61.12
61109;BME280;46995;55.740;37.402;2023-05-20T04:00:40;100470.22;;;11.60;60.98
61109;BME280;46995;55.740;37.402;2023-05-20T04:03:07;100524.09;;;11.83;61.20
61109;BME280;46995;55.740;37.402;2023-05-20T04:05:34;100474.28;;;11.53;61.22
61109;BME280;46995;55.740;37.402;2023-05-20T04:08:03;100474.75;;;11.47;61.50
61109;BME280;46995;55.740;37.402;2023-05-20T04:10:30;100497.13;;;11.54;61.46
61109;BME280;46995;55.740;37.402;2023-05-20T04:12:58;100508.78;;;11.75;61.06
61109;BME280;46995;55.740;37.402;2023-05-20T04:15:24;100493.34;;;11.69;61.32
61109;BME280;46995;55.740;37.402;2023-05-20T04:17:55;100461.34;;;11.61;61.05
61109;BME280;46995;55.740;37.402;2023-05-20T04:20:21;100464.47;;;11.66;60.99
61109;BME280;46995;55.740;37.402;2023-05-20T04:22:50;100467.19;;;11.77;60.93
61109;BME280;46995;55.740;37.402;2023-05-20T04:25:16;100454.34;;;11.60;61.04
61109;BME280;46995;55.740;37.402;2023-05-20T04:27:42;100484.16;;;11.62;61.32
61109;BME280;46995;55.740;37.402;2023-05-20T04:30:11;100507.41;;;11.70;61.46
61109;BME280;46995;55.740;37.402;2023-05-20T04:32:39;100494.16;;;11.59;61.75
61109;BME280;46995;55.740;37.402;2023-05-20T04:35:06;100499.72;;;11.67;61.78
61109;BME280;46995;55.740;37.402;2023-05-20T04:37:38;100478.66;;;11.65;61.57
61109;BME280;46995;55.740;37.402;2023-05-20T04:40:05;100456.25;;;11.58;61.23
61109;BME280;46995;55.740;37.402;2023-05-20T04:42:34;100527.59;;;11.95;61.54
61109;BME280;46995;55.740;37.402;2023-05-20T04:45:00;100498.00;;;11.89;61.25
61109;BME280;46995;55.740;37.402;2023-05-20T04:47:29;100520.94;;;12.13;60.92
61109;BME280;46995;55.740;37.402;2023-05-20T04:49:55;100509.03;;;12.18;60.95
61109;BME280;46995;55.740;37.402;2023-05-20T04:52:24;100507.44;;;12.27;60.78
61109;BME280;46995;55.740;37.402;2023-05-20T04:54:51;100520.47;;;12.41;60.41
61109;BME280;46995;55.740;37.402;2023-05-20T04:57:17;100519.88;;;12.49;60.73
61109;BME280;46995;55.740;37.402;2023-05-20T04:59:46;100525.03;;;12.72;60.22
61109;BME280;46995;55.740;37.402;2023-05-20T05:02:12;100504.34;;;12.66;59.89
61109;BME280;46995;55.740;37.402;2023-05-20T05:04:39;100491.31;;;12.74;59.48
61109;BME280;46995;55.740;37.402;2023-05-20T05:07:06;100493.47;;;12.81;59.49
61109;BME280;46995;55.740;37.402;2023-05-20T05:09:32;100513.19;;;13.10;59.08
61109;BME280;46995;55.740;37.402;2023-05-20T05:11:57;100515.16;;;12.97;59.07
61109;BME280;46995;55.740;37.402;2023-05-20T05:14:23;100505.03;;;12.91;59.19
61109;BME280;46995;55.740;37.402;2023-05-20T05:16:49;100460.09;;;12.78;59.01
61109;BME280;46995;55.740;37.402;2023-05-20T05:19:15;100516.09;;;13.18;58.94
61109;BME280;46995;55.740;37.402;2023-05-20T05:21:41;100477.06;;;12.98;58.76
61109;BME280;46995;55.740;37.402;2023-05-20T05:24:07;100486.22;;;12.94;58.93
61109;BME280;46995;55.740;37.402;2023-05-20T05:26:35;100510.31;;;13.02;59.31
61109;BME280;46995;55.740;37.402;2023-05-20T05:29:02;100439.63;;;12.80;58.74
61109;BME280;46995;55.740;37.402;2023-05-20T05:31:27;100496.31;;;13.22;58.81
61109;BME280;46995;55.740;37.402;2023-05-20T05:33:53;100499.78;;;13.34;58.76
61109;BME280;46995;55.740;37.402;2023-05-20T05:36:22;100499.25;;;13.40;58.45
61109;BME280;46995;55.740;37.402;2023-05-20T05:38:48;100503.78;;;13.28;58.71
61109;BME280;46995;55.740;37.402;2023-05-20T05:41:14;100455.72;;;12.99;58.51
61109;BME280;46995;55.740;37.402;2023-05-20T05:43:40;100499.41;;;13.38;58.41
61109;BME280;46995;55.740;37.402;2023-05-20T05:46:06;100503.75;;;13.39;58.32
61109;BME280;46995;55.740;37.402;2023-05-20T05:48:35;100501.09;;;13.39;58.06
61109;BME280;46995;55.740;37.402;2023-05-20T05:51:02;100457.22;;;13.24;58.02
61109;BME280;46995;55.740;37.402;2023-05-20T05:53:28;100477.84;;;13.52;57.25
61109;BME280;46995;55.740;37.402;2023-05-20T05:55:55;100454.22;;;13.29;57.67
61109;BME280;46995;55.740;37.402;2023-05-20T05:58:21;100469.03;;;13.31;57.78
61109;BME280;46995;55.740;37.402;2023-05-20T06:00:50;100459.84;;;13.35;57.84
61109;BME280;46995;55.740;37.402;2023-05-20T06:03:18;100452.78;;;13.45;57.32
61109;BME280;46995;55.740;37.402;2023-05-20T06:05:45;100498.78;;;13.67;57.29
61109;BME280;46995;55.740;37.402;2023-05-20T06:08:11;100495.44;;;13.65;57.72
61109;BME280;46995;55.740;37.402;2023-05-20T06:10:37;100486.50;;;13.66;57.75
61109;BME280;46995;55.740;37.402;2023-05-20T06:13:03;100488.44;;;13.64;58.05
61109;BME280;46995;55.740;37.402;2023-05-20T06:15:30;100493.06;;;13.71;57.58
61109;BME280;46995;55.740;37.402;2023-05-20T06:17:57;100466.06;;;13.45;57.08
61109;BME280;46995;55.740;37.402;2023-05-20T06:20:24;100451.19;;;13.33;57.36
61109;BME280;46995;55.740;37.402;2023-05-20T06:22:49;100455.56;;;13.23;57.46
61109;BME280;46995;55.740;37.402;2023-05-20T06:25:16;100498.75;;;13.46;57.83
61109;BME280;46995;55.740;37.402;2023-05-20T06:27:42;100488.47;;;13.52;57.66
61109;BME280;46995;55.740;37.402;2023-05-20T06:30:11;100453.19;;;13.41;57.00
61109;BME280;46995;55.740;37.402;2023-05-20T06:32:36;100474.69;;;13.58;56.79
61109;BME280;46995;55.740;37.402;2023-05-20T06:35:03;100443.19;;;13.44;56.60
61109;BME280;46995;55.740;37.402;2023-05-20T06:37:29;100466.06;;;13.45;56.92
61109;BME280;46995;55.740;37.402;2023-05-20T06:39:56;100496.66;;;13.61;56.91
61109;BME280;46995;55.740;37.402;2023-05-20T06:42:21;100506.50;;;13.70;56.86
61109;BME280;46995;55.740;37.402;2023-05-20T06:45:01;100495.38;;;13.76;56.54
61109;BME280;46995;55.740;37.402;2023-05-20T06:47:46;100477.47;;;13.78;56.24
61109;BME280;46995;55.740;37.402;2023-05-20T06:50:15;100479.44;;;13.76;55.60
61109;BME280;46995;55.740;37.402;2023-05-20T06:52:42;100435.13;;;13.55;56.05
61109;BME280;46995;55.740;37.402;2023-05-20T06:55:08;100487.97;;;14.00;55.66
61109;BME280;46995;55.740;37.402;2023-05-20T06:57:34;100408.41;;;13.68;55.42
61109;BME280;46995;55.740;37.402;2023-05-20T07:00:00;100483.94;;;14.26;54.60
61109;BME280;46995;55.740;37.402;2023-05-20T07:02:48;100506.28;;;14.45;54.97
61109;BME280;46995;55.740;37.402;2023-05-20T07:05:17;100452.44;;;14.43;54.45
61109;BME280;46995;55.740;37.402;2023-05-20T07:07:44;100421.50;;;14.41;53.33
61109;BME280;46995;55.740;37.402;2023-05-20T07:10:10;100502.13;;;14.92;53.06
61109;BME280;46995;55.740;37.402;2023-05-20T07:12:36;100501.56;;;14.88;53.23
61109;BME280;46995;55.740;37.402;2023-05-20T07:15:02;100495.78;;;14.73;53.12
61109;BME280;46995;55.740;37.402;2023-05-20T07:17:30;100501.81;;;14.75;53.49
61109;BME280;46995;55.740;37.402;2023-05-20T07:19:59;100488.22;;;14.69;53.33
61109;BME280;46995;55.740;37.402;2023-05-20T07:22:25;100494.50;;;14.68;52.02
61109;BME280;46995;55.740;37.402;2023-05-20T07:24:56;100482.16;;;14.67;52.33
61109;BME280;46995;55.740;37.402;2023-05-20T07:27:21;100498.91;;;14.88;52.19
61109;BME280;46995;55.740;37.402;2023-05-20T07:29:47;100480.47;;;14.66;51.25
61109;BME280;46995;55.740;37.402;2023-05-20T07:32:13;100483.72;;;14.60;51.37
61109;BME280;46995;55.740;37.402;2023-05-20T07:34:39;100495.47;;;14.67;50.94
61109;BME280;46995;55.740;37.402;2023-05-20T07:37:05;100488.34;;;14.77;51.21
61109;BME280;46995;55.740;37.402;2023-05-20T07:39:30;100470.78;;;14.95;50.82
61109;BME280;46995;55.740;37.402;2023-05-20T07:41:56;100483.69;;;15.09;50.19
61109;BME280;46995;55.740;37.402;2023-05-20T07:44:22;100479.22;;;15.19;48.98
61109;BME280;46995;55.740;37.402;2023-05-20T07:46:50;100475.59;;;15.30;48.36
61109;BME280;46995;55.740;37.402;2023-05-20T07:49:19;100460.88;;;15.45;47.63
61109;BME280;46995;55.740;37.402;2023-05-20T07:51:47;100467.47;;;15.89;47.29
61109;BME280;46995;55.740;37.402;2023-05-20T07:54:14;100451.88;;;15.94;46.08
61109;BME280;46995;55.740;37.402;2023-05-20T07:56:41;100491.81;;;16.14;45.42
61109;BME280;46995;55.740;37.402;2023-05-20T07:59:08;100466.47;;;15.90;45.84
61109;BME280;46995;55.740;37.402;2023-05-20T08:01:40;100462.69;;;15.83;45.73
61109;BME280;46995;55.740;37.402;2023-05-20T08:04:07;100460.16;;;15.82;45.65
61109;BME280;46995;55.740;37.402;2023-05-20T08:06:34;100462.72;;;15.74;45.64
61109;BME280;46995;55.740;37.402;2023-05-20T08:09:02;100464.28;;;15.57;44.75
61109;BME280;46995;55.740;37.402;2023-05-20T08:11:32;100468.03;;;15.45;45.01
61109;BME280;46995;55.740;37.402;2023-05-20T08:13:59;100473.91;;;15.48;44.98
61109;BME280;46995;55.740;37.402;2023-05-20T08:16:27;100466.81;;;15.58;45.14
61109;BME280;46995;55.740;37.402;2023-05-20T08:18:54;100473.91;;;15.77;44.72
61109;BME280;46995;55.740;37.402;2023-05-20T08:21:20;100468.00;;;15.93;44.50
61109;BME280;46995;55.740;37.402;2023-05-20T08:23:46;100486.19;;;16.07;44.45
61109;BME280;46995;55.740;37.402;2023-05-20T08:26:12;100466.91;;;15.95;44.43
61109;BME280;46995;55.740;37.402;2023-05-20T08:28:40;100449.50;;;15.91;44.61
61109;BME280;46995;55.740;37.402;2023-05-20T08:31:06;100473.72;;;16.17;44.25
61109;BME280;46995;55.740;37.402;2023-05-20T08:33:33;100468.53;;;16.16;44.04
61109;BME280;46995;55.740;37.402;2023-05-20T08:35:59;100478.81;;;16.01;44.58
61109;BME280;46995;55.740;37.402;2023-05-20T08:38:25;100461.84;;;15.92;44.61
61109;BME280;46995;55.740;37.402;2023-05-20T08:40:53;100468.56;;;15.96;44.07
61109;BME280;46995;55.740;37.402;2023-05-20T08:43:19;100441.69;;;15.80;44.58
61109;BME280;46995;55.740;37.402;2023-05-20T08:45:46;100478.63;;;16.02;44.59
61109;BME280;46995;55.740;37.402;2023-05-20T08:48:15;100442.22;;;15.93;44.09
61109;BME280;46995;55.740;37.402;2023-05-20T08:50:44;100487.31;;;16.14;44.29
61109;BME280;46995;55.740;37.402;2023-05-20T08:53:15;100463.88;;;16.18;44.43
61109;BME280;46995;55.740;37.402;2023-05-20T08:55:42;100444.06;;;16.30;43.74
61109;BME280;46995;55.740;37.402;2023-05-20T08:58:11;100445.38;;;16.43;42.72
61109;BME280;46995;55.740;37.402;2023-05-20T09:00:37;100464.16;;;16.61;42.41
61109;BME280;46995;55.740;37.402;2023-05-20T09:03:03;100465.31;;;16.59;42.55
61109;BME280;46995;55.740;37.402;2023-05-20T09:05:29;100453.13;;;16.46;42.24
61109;BME280;46995;55.740;37.402;2023-05-20T09:10:32;100463.19;;;16.62;41.61
61109;BME280;46995;55.740;37.402;2023-05-20T09:13:00;100461.22;;;16.64;41.90
61109;BME280;46995;55.740;37.402;2023-05-20T09:15:29;100459.94;;;16.86;41.61
61109;BME280;46995;55.740;37.402;2023-05-20T09:18:07;100458.22;;;16.94;41.14
61109;BME280;46995;55.740;37.402;2023-05-20T09:20:35;100478.91;;;17.10;41.06
61109;BME280;46995;55.740;37.402;2023-05-20T09:23:07;100471.69;;;17.20;41.54
61109;BME280;46995;55.740;37.402;2023-05-20T09:25:36;100461.28;;;17.17;41.82
61109;BME280;46995;55.740;37.402;2023-05-20T09:28:08;100480.44;;;17.13;41.56
61109;BME280;46995;55.740;37.402;2023-05-20T09:30:34;100470.06;;;17.10;41.17
61109;BME280;46995;55.740;37.402;2023-05-20T09:33:03;100475.78;;;17.15;41.03
61109;BME280;46995;55.740;37.402;2023-05-20T09:35:29;100469.28;;;17.00;41.54
61109;BME280;46995;55.740;37.402;2023-05-20T09:37:57;100469.03;;;16.93;41.56
61109;BME280;46995;55.740;37.402;2023-05-20T09:40:27;100476.06;;;16.94;42.04
61109;BME280;46995;55.740;37.402;2023-05-20T09:43:04;100474.13;;;16.86;41.47
61109;BME280;46995;55.740;37.402;2023-05-20T09:45:30;100471.19;;;16.62;42.56
61109;BME280;46995;55.740;37.402;2023-05-20T09:47:59;100470.63;;;16.49;42.94
61109;BME280;46995;55.740;37.402;2023-05-20T09:50:27;100482.78;;;16.71;42.87
61109;BME280;46995;55.740;37.402;2023-05-20T09:52:53;100478.41;;;16.79;42.70
61109;BME280;46995;55.740;37.402;2023-05-20T09:55:23;100454.22;;;16.81;42.53
61109;BME280;46995;55.740;37.402;2023-05-20T09:57:52;100466.81;;;16.88;41.88
61109;BME280;46995;55.740;37.402;2023-05-20T10:00:22;100464.28;;;16.69;42.42
61109;BME280;46995;55.740;37.402;2023-05-20T10:02:51;100476.22;;;16.65;42.16
61109;BME280;46995;55.740;37.402;2023-05-20T10:05:20;100474.00;;;16.51;42.73
61109;BME280;46995;55.740;37.402;2023-05-20T10:10:51;100480.66;;;16.28;44.26
61109;BME280;46995;55.740;37.402;2023-05-20T10:21:56;100499.59;;;15.68;45.66
61109;BME280;46995;55.740;37.402;2023-05-20T10:24:38;100494.09;;;15.51;46.17
61109;BME280;46995;55.740;37.402;2023-05-20T10:27:13;100509.94;;;15.33;46.20
61109;BME280;46995;55.740;37.402;2023-05-20T10:29:49;100502.19;;;15.20;45.79
61109;BME280;46995;55.740;37.402;2023-05-20T10:32:26;100491.94;;;15.06;45.98
61109;BME280;46995;55.740;37.402;2023-05-20T10:34:57;100504.97;;;15.09;46.49
61109;BME280;46995;55.740;37.402;2023-05-20T10:37:29;100473.00;;;14.90;46.47
61109;BME280;46995;55.740;37.402;2023-05-20T10:40:08;100501.88;;;15.04;46.07
61109;BME280;46995;55.740;37.402;2023-05-20T10:42:36;100491.78;;;14.98;46.66
61109;BME280;46995;55.740;37.402;2023-05-20T10:45:08;100505.81;;;15.19;46.22
61109;BME280;46995;55.740;37.402;2023-05-20T10:47:34;100498.41;;;15.23;46.25
61109;BME280;46995;55.740;37.402;2023-05-20T10:50:01;100477.94;;;15.23;46.45
61109;BME280;46995;55.740;37.402;2023-05-20T10:52:40;100499.69;;;15.48;46.18
61109;BME280;46995;55.740;37.402;2023-05-20T10:55:06;100476.72;;;15.47;45.75
61109;BME280;46995;55.740;37.402;2023-05-20T10:57:44;100487.38;;;15.66;45.80
61109;BME280;46995;55.740;37.402;2023-05-20T11:00:10;100486.53;;;15.94;45.58
61109;BME280;46995;55.740;37.402;2023-05-20T11:02:37;100472.50;;;15.92;45.19
61109;BME280;46995;55.740;37.402;2023-05-20T11:05:05;100486.88;;;16.19;44.71
61109;BME280;46995;55.740;37.402;2023-05-20T11:08:21;100491.56;;;16.44;44.55
61109;BME280;46995;55.740;37.402;2023-05-20T11:10:47;100431.47;;;16.22;43.80
61109;BME280;46995;55.740;37.402;2023-05-20T11:13:13;100488.41;;;16.68;43.87
61109;BME280;46995;55.740;37.402;2023-05-20T11:15:41;100481.75;;;16.81;43.33
61109;BME280;46995;55.740;37.402;2023-05-20T11:18:09;100476.97;;;16.85;42.78
61109;BME280;46995;55.740;37.402;2023-05-20T11:20:37;100452.44;;;16.72;43.38
61109;BME280;46995;55.740;37.402;2023-05-20T11:23:04;100477.78;;;16.85;43.56
61109;BME280;46995;55.740;37.402;2023-05-20T11:25:32;100467.34;;;16.74;43.73
61109;BME280;46995;55.740;37.402;2023-05-20T11:27:58;100455.03;;;16.54;44.09
61109;BME280;46995;55.740;37.402;2023-05-20T11:30:24;100479.47;;;16.59;43.71
61109;BME280;46995;55.740;37.402;2023-05-20T11:32:57;100491.53;;;16.63;43.68
61109;BME280;46995;55.740;37.402;2023-05-20T11:35:24;100503.19;;;16.62;43.62
61109;BME280;46995;55.740;37.402;2023-05-20T11:38:05;100501.50;;;16.61;43.59
61109;BME280;46995;55.740;37.402;2023-05-20T11:40:33;100487.47;;;16.59;43.61
61109;BME280;46995;55.740;37.402;2023-05-20T11:43:01;100478.09;;;16.45;44.16
61109;BME280;46995;55.740;37.402;2023-05-20T11:45:55;100500.66;;;16.51;44.35
61109;BME280;46995;55.740;37.402;2023-05-20T11:48:23;100504.38;;;16.31;44.80
61109;BME280;46995;55.740;37.402;2023-05-20T11:50:52;100499.41;;;15.99;44.95
61109;BME280;46995;55.740;37.402;2023-05-20T11:53:21;100494.56;;;15.75;45.01
61109;BME280;46995;55.740;37.402;2023-05-20T11:55:57;100503.50;;;15.74;45.07
61109;BME280;46995;55.740;37.402;2023-05-20T11:58:25;100502.94;;;15.71;44.67
61109;BME280;46995;55.740;37.402;2023-05-20T12:00:51;100496.94;;;15.68;44.76
61109;BME280;46995;55.740;37.402;2023-05-20T12:03:17;100495.66;;;15.63;44.59
61109;BME280;46995;55.740;37.402;2023-05-20T12:05:46;100501.81;;;15.73;44.65
61109;BME280;46995;55.740;37.402;2023-05-20T12:08:16;100495.78;;;15.71;44.11
61109;BME280;46995;55.740;37.402;2023-05-20T12:10:41;100490.75;;;15.68;43.81
61109;BME280;46995;55.740;37.402;2023-05-20T12:13:09;100506.44;;;15.71;44.09
61109;BME280;46995;55.740;37.402;2023-05-20T12:15:39;100504.19;;;15.76;43.89
61109;BME280;46995;55.740;37.402;2023-05-20T12:18:05;100501.97;;;15.62;43.38
61109;BME280;46995;55.740;37.402;2023-05-20T12:20:31;100504.50;;;15.63;43.89
61109;BME280;46995;55.740;37.402;2023-05-20T12:22:59;100503.91;;;15.89;43.90
61109;BME280;46995;55.740;37.402;2023-05-20T12:25:25;100502.19;;;16.07;43.39
61109;BME280;46995;55.740;37.402;2023-05-20T12:27:51;100480.63;;;16.00;42.95
61109;BME280;46995;55.740;37.402;2023-05-20T12:30:18;100497.66;;;16.27;42.40
61109;BME280;46995;55.740;37.402;2023-05-20T12:32:45;100460.53;;;16.16;41.88
61109;BME280;46995;55.740;37.402;2023-05-20T12:35:11;100494.50;;;16.50;41.96
61109;BME280;46995;55.740;37.402;2023-05-20T12:37:39;100454.53;;;16.41;41.58
61109;BME280;46995;55.740;37.402;2023-05-20T12:40:10;100433.88;;;16.16;41.77
61109;BME280;46995;55.740;37.402;2023-05-20T12:42:38;100505.06;;;16.42;41.91
61109;BME280;46995;55.740;37.402;2023-05-20T12:45:05;100407.63;;;15.74;42.34
61109;BME280;46995;55.740;37.402;2023-05-20T12:47:31;100428.44;;;15.98;42.42
61109;BME280;46995;55.740;37.402;2023-05-20T12:49:58;100466.53;;;16.18;42.80
61109;BME280;46995;55.740;37.402;2023-05-20T12:52:25;100496.22;;;16.42;43.51
61109;BME280;46995;55.740;37.402;2023-05-20T12:54:53;100491.47;;;16.36;43.80
61109;BME280;46995;55.740;37.402;2023-05-20T12:57:18;100491.47;;;16.36;43.83
61109;BME280;46995;55.740;37.402;2023-05-20T12:59:44;100481.72;;;16.17;43.55
61109;BME280;46995;55.740;37.402;2023-05-20T13:02:13;100502.75;;;16.10;44.01
61109;BME280;46995;55.740;37.402;2023-05-20T13:04:39;100491.31;;;15.91;44.41
61109;BME280;46995;55.740;37.402;2023-05-20T13:07:04;100483.47;;;15.70;44.36
61109;BME280;46995;55.740;37.402;2023-05-20T13:09:30;100503.63;;;15.82;45.03